Time;durP1;ratioP1;P1;durP2;ratioP2;P2;SDS_P1;SDS_P2;PMS_P1;PMS_P2;Temp;Humidity;BMP_temperature;BMP_pressure;BME280_temperature;BME280_humidity;BME280_pressure;Samples;Min_cycle;Max_cycle;Signal;HPM_P1;HPM_P2
2022/07/12 00:00:40;;;;;;;6.73;3.07;;;18.40;99.90;;;;;;5076800;28;20618;-72
2022/07/12 00:03:07;;;;;;;2.27;2.17;;;18.30;99.90;;;;;;5058961;28;20648;-72
2022/07/12 00:05:35;;;;;;;2.40;2.30;;;18.30;99.90;;;;;;5077616;28;20602;-72
2022/07/12 00:08:01;;;;;;;3.37;2.90;;;18.20;99.90;;;;;;5077462;28;20618;-72
2022/07/12 00:10:28;;;;;;;4.17;2.80;;;18.20;99.90;;;;;;5059468;28;20565;-72
2022/07/12 00:12:54;;;;;;;3.30;2.80;;;18.20;99.90;;;;;;5077244;28;20717;-72
2022/07/12 00:15:21;;;;;;;2.67;2.47;;;18.20;99.90;;;;;;5077341;28;21159;-72
2022/07/12 00:17:47;;;;;;;3.07;2.70;;;18.20;99.90;;;;;;5059776;28;20618;-72
2022/07/12 00:20:14;;;;;;;2.97;2.77;;;18.20;99.90;;;;;;5042419;28;20664;-72
2022/07/12 00:22:40;;;;;;;2.80;2.60;;;18.20;99.90;;;;;;5076145;28;20661;-72
2022/07/12 00:25:07;;;;;;;2.30;2.20;;;18.20;99.90;;;;;;5042942;28;20606;-72
2022/07/12 00:27:34;;;;;;;3.10;2.80;;;18.10;99.90;;;;;;5076470;28;20961;-72
2022/07/12 00:30:01;;;;;;;3.53;2.43;;;18.20;99.90;;;;;;5058228;28;20687;-72
2022/07/12 00:32:28;;;;;;;6.03;2.80;;;18.20;99.90;;;;;;5077036;28;20617;-72
2022/07/12 00:34:54;;;;;;;4.17;2.97;;;18.10;99.90;;;;;;5077154;28;20586;-72
2022/07/12 00:37:20;;;;;;;4.70;2.40;;;18.00;99.90;;;;;;5076434;28;20625;-72
2022/07/12 00:39:47;;;;;;;7.43;2.87;;;17.90;99.90;;;;;;5037539;28;20643;-72
2022/07/12 00:42:13;;;;;;;3.00;2.60;;;17.90;99.90;;;;;;5054635;28;21161;-72
2022/07/12 00:44:40;;;;;;;5.33;2.50;;;17.80;99.90;;;;;;5055955;28;20677;-72
2022/07/12 00:47:07;;;;;;;2.77;2.60;;;17.80;99.90;;;;;;5056701;28;20634;-72
2022/07/12 00:49:33;;;;;;;4.17;2.97;;;17.70;99.90;;;;;;5056393;28;20661;-72
2022/07/12 00:52:00;;;;;;;5.97;2.67;;;17.70;99.90;;;;;;5054818;28;20974;-72
2022/07/12 00:54:27;;;;;;;3.40;2.43;;;17.60;99.90;;;;;;5055266;28;20611;-72
2022/07/12 00:56:54;;;;;;;6.10;3.07;;;17.60;99.90;;;;;;5056007;28;20631;-72
2022/07/12 00:59:20;;;;;;;3.50;3.20;;;17.50;99.90;;;;;;5056557;28;20619;-72
2022/07/12 01:01:47;;;;;;;2.60;2.20;;;17.50;99.90;;;;;;5056270;28;20615;-72
2022/07/12 01:04:17;;;;;;;2.80;2.67;;;17.40;99.90;;;;;;5056272;28;20646;-72
2022/07/12 01:06:43;;;;;;;2.70;2.17;;;17.40;99.90;;;;;;5056422;28;20592;-72
2022/07/12 01:09:10;;;;;;;3.00;2.80;;;17.40;99.90;;;;;;5054959;28;20611;-72
2022/07/12 01:11:37;;;;;;;3.23;2.93;;;17.40;99.90;;;;;;5055982;28;20584;-72
2022/07/12 01:14:04;;;;;;;5.03;2.80;;;17.40;99.90;;;;;;5054772;28;20622;-72
2022/07/12 01:16:31;;;;;;;2.73;2.60;;;17.40;99.90;;;;;;5053771;28;20611;-72
2022/07/12 01:18:58;;;;;;;2.70;2.57;;;17.40;99.90;;;;;;5055249;28;21185;-72
2022/07/12 01:21:31;;;;;;;2.83;2.50;;;17.40;99.90;;;;;;5053731;28;20989;-72
2022/07/12 01:23:59;;;;;;;3.07;2.73;;;17.40;99.90;;;;;;5055381;28;20659;-72
2022/07/12 01:26:26;;;;;;;2.23;2.03;;;17.40;99.90;;;;;;5055637;28;20614;-72
2022/07/12 01:28:54;;;;;;;2.50;2.20;;;17.40;99.90;;;;;;5055657;28;20615;-72
2022/07/12 01:31:21;;;;;;;2.63;2.47;;;17.40;99.90;;;;;;5056140;28;20626;-72
2022/07/12 01:33:51;;;;;;;1.93;1.83;;;17.40;99.90;;;;;;5054952;28;20619;-72
2022/07/12 01:36:17;;;;;;;3.43;2.40;;;17.30;99.90;;;;;;5055288;28;21225;-72
2022/07/12 01:38:44;;;;;;;2.80;2.50;;;17.30;99.90;;;;;;5021049;28;20623;-72
2022/07/12 01:41:10;;;;;;;2.63;2.43;;;17.30;99.90;;;;;;5075805;28;20657;-72
2022/07/12 01:43:37;;;;;;;2.50;2.40;;;17.30;99.90;;;;;;5042164;28;20670;-72
2022/07/12 01:46:04;;;;;;;4.87;2.57;;;17.30;99.90;;;;;;5057936;28;20603;-72
2022/07/12 01:48:30;;;;;;;2.40;2.30;;;17.30;99.90;;;;;;5076266;28;20633;-72
2022/07/12 01:50:57;;;;;;;8.03;2.37;;;17.20;99.90;;;;;;5076841;28;20614;-72
2022/07/12 01:53:23;;;;;;;2.67;2.47;;;17.20;99.90;;;;;;5076933;28;20614;-72
2022/07/12 01:55:50;;;;;;;4.50;2.50;;;17.10;99.90;;;;;;5058821;28;20629;-73
2022/07/12 01:58:17;;;;;;;2.83;2.73;;;17.10;99.90;;;;;;5059383;28;20610;-73
2022/07/12 02:00:50;;;;;;;2.63;2.47;;;17.00;99.90;;;;;;5058918;28;20701;-73
2022/07/12 02:03:18;;;;;;;2.63;2.43;;;17.00;99.90;;;;;;5074993;28;20661;-73
2022/07/12 02:05:46;;;;;;;5.60;2.10;;;17.00;99.90;;;;;;5076817;28;20598;-73
2022/07/12 02:08:13;;;;;;;5.50;2.70;;;17.00;99.90;;;;;;5076289;28;20706;-73
2022/07/12 02:10:40;;;;;;;3.47;2.67;;;17.00;99.90;;;;;;5058875;28;20614;-73
2022/07/12 02:13:07;;;;;;;2.67;2.57;;;17.00;99.90;;;;;;5057966;28;21016;-73
2022/07/12 02:15:34;;;;;;;2.40;2.00;;;17.00;99.90;;;;;;5075241;28;20614;-73
2022/07/12 02:18:00;;;;;;;2.67;2.47;;;17.00;99.90;;;;;;5057918;28;20676;-73
2022/07/12 02:20:27;;;;;;;3.00;2.60;;;17.00;99.90;;;;;;5058850;28;20610;-73
2022/07/12 02:22:53;;;;;;;2.67;2.57;;;17.00;99.90;;;;;;5076491;28;20618;-73
2022/07/12 02:25:20;;;;;;;3.10;2.80;;;17.10;99.90;;;;;;5076233;28;20681;-73
2022/07/12 02:27:46;;;;;;;4.53;2.13;;;17.10;99.90;;;;;;5060046;28;20668;-73
2022/07/12 02:30:13;;;;;;;2.70;2.03;;;17.10;99.90;;;;;;5059008;28;20610;-73
2022/07/12 02:32:40;;;;;;;2.63;2.43;;;17.10;99.90;;;;;;5041555;28;21156;-73
2022/07/12 02:35:07;;;;;;;2.57;2.47;;;17.00;99.90;;;;;;5059591;28;20610;-73
2022/07/12 02:37:33;;;;;;;5.10;2.10;;;17.00;99.90;;;;;;5076997;28;20582;-73
2022/07/12 02:42:45;;;;;;;3.33;2.97;;;16.90;99.90;;;;;;5075756;28;21019;-73
2022/07/12 02:45:12;;;;;;;3.40;2.33;;;16.90;99.90;;;;;;5076575;28;20597;-73
2022/07/12 02:47:40;;;;;;;2.43;2.13;;;16.90;99.90;;;;;;5078772;28;21089;-73
2022/07/12 02:50:07;;;;;;;2.63;2.53;;;16.90;99.90;;;;;;5080120;28;20629;-73
2022/07/12 02:52:34;;;;;;;2.37;2.20;;;16.90;99.90;;;;;;5079523;28;20673;-73
2022/07/12 02:55:01;;;;;;;2.37;2.10;;;16.80;99.90;;;;;;5080135;28;21044;-73
2022/07/12 02:57:27;;;;;;;2.40;2.30;;;16.80;99.90;;;;;;5080464;28;20642;-73
2022/07/12 02:59:53;;;;;;;3.20;3.00;;;16.70;99.90;;;;;;5080017;28;20614;-72
2022/07/12 03:02:20;;;;;;;2.53;2.43;;;16.70;99.90;;;;;;5079676;28;20998;-72
2022/07/12 03:04:46;;;;;;;2.40;2.30;;;16.70;99.90;;;;;;5061841;28;20653;-73
2022/07/12 03:07:13;;;;;;;3.27;2.37;;;16.60;99.90;;;;;;5080105;28;20614;-73
2022/07/12 03:09:39;;;;;;;2.73;2.53;;;16.60;99.90;;;;;;5045496;28;20606;-73
2022/07/12 03:12:07;;;;;;;2.90;2.70;;;16.60;99.90;;;;;;5079611;28;20606;-73
2022/07/12 03:14:33;;;;;;;2.50;2.37;;;16.50;99.90;;;;;;5061346;28;20613;-73
2022/07/12 03:16:59;;;;;;;2.40;2.30;;;16.40;99.90;;;;;;5079097;28;20621;-73
2022/07/12 03:19:26;;;;;;;3.33;2.60;;;16.40;99.90;;;;;;5078601;28;20617;-73
2022/07/12 03:21:52;;;;;;;2.70;2.60;;;16.30;99.90;;;;;;5079274;28;20641;-73
2022/07/12 03:24:19;;;;;;;2.33;2.23;;;16.30;99.90;;;;;;5079087;28;20715;-72
2022/07/12 03:26:45;;;;;;;2.70;2.60;;;16.30;99.90;;;;;;5044315;28;20965;-72
2022/07/12 03:29:12;;;;;;;3.07;2.87;;;16.40;99.90;;;;;;5079732;28;20663;-72
2022/07/12 03:31:39;;;;;;;2.80;2.37;;;16.40;99.90;;;;;;5078902;28;20648;-72
2022/07/12 03:34:05;;;;;;;2.83;2.50;;;16.30;99.90;;;;;;5060600;28;20626;-72
2022/07/12 03:36:31;;;;;;;2.93;2.27;;;16.30;99.90;;;;;;5078972;28;20617;-72
2022/07/12 03:38:58;;;;;;;3.37;2.70;;;16.30;99.90;;;;;;5060216;28;20637;-72
2022/07/12 03:41:24;;;;;;;3.30;3.10;;;16.30;99.90;;;;;;5060621;28;20614;-72
2022/07/12 03:43:51;;;;;;;6.37;2.70;;;16.30;99.90;;;;;;5078687;28;21027;-72
2022/07/12 03:46:17;;;;;;;2.67;2.47;;;16.30;99.90;;;;;;5060175;28;20630;-72
2022/07/12 03:48:44;;;;;;;5.77;2.40;;;16.40;99.90;;;;;;5077817;28;20589;-72
2022/07/12 03:51:10;;;;;;;2.87;2.67;;;16.40;99.90;;;;;;5078951;28;20613;-72
2022/07/12 03:53:36;;;;;;;2.57;2.47;;;16.40;99.90;;;;;;5078681;28;20735;-72
2022/07/12 03:56:03;;;;;;;2.80;2.70;;;16.40;99.90;;;;;;5059210;28;20646;-72
2022/07/12 03:58:29;;;;;;;31.33;4.40;;;16.40;99.90;;;;;;5076679;28;20617;-72
2022/07/12 04:00:56;;;;;;;12.63;3.40;;;16.40;99.90;;;;;;5060605;28;20625;-72
2022/07/12 04:03:22;;;;;;;4.93;2.67;;;16.50;99.90;;;;;;5078150;28;20654;-72
2022/07/12 04:05:49;;;;;;;2.83;2.50;;;16.50;99.90;;;;;;5078700;28;21017;-71
2022/07/12 04:08:16;;;;;;;2.80;2.60;;;16.50;99.90;;;;;;5078253;28;20943;-72
2022/07/12 04:10:42;;;;;;;5.20;2.80;;;16.50;99.90;;;;;;5044421;28;20610;-72
2022/07/12 04:13:08;;;;;;;2.73;2.63;;;16.60;99.90;;;;;;5061184;28;20594;-72
2022/07/12 04:15:35;;;;;;;5.00;3.27;;;16.60;99.90;;;;;;5079140;28;20611;-72
2022/07/12 04:18:02;;;;;;;3.77;2.73;;;16.60;99.90;;;;;;5079454;28;20596;-72
2022/07/12 04:20:29;;;;;;;2.70;2.53;;;16.70;99.90;;;;;;5061146;28;20975;-72
2022/07/12 04:22:55;;;;;;;7.67;2.90;;;16.70;99.90;;;;;;5079109;28;20669;-73
2022/07/12 04:25:22;;;;;;;3.07;2.90;;;16.70;99.90;;;;;;5079065;28;21283;-73
2022/07/12 04:27:49;;;;;;;2.90;2.70;;;16.70;99.90;;;;;;5077856;28;20611;-73
2022/07/12 04:30:15;;;;;;;3.27;2.97;;;16.80;99.90;;;;;;5077734;28;20687;-73
2022/07/12 04:32:42;;;;;;;2.57;2.37;;;16.80;99.90;;;;;;5078741;28;20729;-73
2022/07/12 04:35:08;;;;;;;5.83;3.23;;;16.90;99.90;;;;;;5060810;28;20625;-73
2022/07/12 04:37:35;;;;;;;2.40;2.30;;;16.90;99.90;;;;;;5077548;28;20610;-73
2022/07/12 04:40:02;;;;;;;2.83;2.70;;;16.80;99.90;;;;;;5077689;28;20654;-73
2022/07/12 04:42:29;;;;;;;3.27;2.97;;;16.80;99.90;;;;;;5076941;28;20965;-73
2022/07/12 04:44:55;;;;;;;5.17;3.13;;;16.80;99.90;;;;;;5060242;28;20646;-73
2022/07/12 04:47:21;;;;;;;3.63;3.33;;;17.00;99.90;;;;;;5078532;28;20606;-73
2022/07/12 04:49:48;;;;;;;5.33;4.83;;;17.10;99.90;;;;;;5078103;28;20678;-73
2022/07/12 04:52:15;;;;;;;5.67;2.80;;;17.10;99.90;;;;;;5078136;28;20607;-73
2022/07/12 04:54:41;;;;;;;3.60;3.33;;;17.10;99.90;;;;;;5077938;28;20652;-73
2022/07/12 04:57:08;;;;;;;2.90;2.70;;;17.10;99.90;;;;;;5043965;28;20654;-73
2022/07/12 04:59:34;;;;;;;2.53;2.40;;;17.10;99.90;;;;;;5043916;28;20958;-73
2022/07/12 05:02:01;;;;;;;8.90;2.73;;;17.20;99.90;;;;;;5076823;28;20600;-73
2022/07/12 05:04:32;;;;;;;3.57;2.90;;;17.20;99.90;;;;;;5077887;28;20654;-73
2022/07/12 05:06:58;;;;;;;3.33;2.93;;;17.40;99.90;;;;;;5060442;28;21084;-72
2022/07/12 05:09:25;;;;;;;8.10;3.17;;;17.30;99.90;;;;;;5076725;28;20630;-73
2022/07/12 05:11:51;;;;;;;4.57;3.23;;;17.40;99.90;;;;;;5060431;28;20617;-73
2022/07/12 05:14:18;;;;;;;2.90;2.60;;;17.50;99.90;;;;;;5060278;28;21099;-73
2022/07/12 05:16:44;;;;;;;4.40;2.53;;;17.60;99.90;;;;;;5076857;28;20598;-73
2022/07/12 05:19:11;;;;;;;3.00;2.80;;;17.50;99.90;;;;;;5077837;28;21139;-73
2022/07/12 05:21:37;;;;;;;3.17;2.97;;;17.40;99.90;;;;;;5076960;28;21148;-73
2022/07/12 05:24:04;;;;;;;2.77;2.53;;;17.50;99.90;;;;;;5076059;28;20646;-73
2022/07/12 05:26:30;;;;;;;3.27;2.80;;;17.60;99.90;;;;;;5075795;28;21201;-73
2022/07/12 05:28:57;;;;;;;3.03;2.60;;;17.60;99.90;;;;;;5057316;28;20611;-73
2022/07/12 05:31:24;;;;;;;3.00;2.50;;;17.70;99.90;;;;;;5076322;28;20603;-73
2022/07/12 05:33:51;;;;;;;6.07;2.30;;;17.80;99.90;;;;;;5076302;28;20593;-73
2022/07/12 05:36:17;;;;;;;3.20;2.90;;;17.90;99.90;;;;;;5057721;28;20614;-76
2022/07/12 05:38:44;;;;;;;2.80;2.60;;;18.00;99.90;;;;;;5058050;28;20634;-76
2022/07/12 05:41:11;;;;;;;3.00;2.80;;;18.10;99.90;;;;;;5075982;28;20654;-76
2022/07/12 05:43:37;;;;;;;3.50;3.20;;;18.20;99.90;;;;;;5058274;28;21228;-74
2022/07/12 05:46:05;;;;;;;6.13;3.23;;;18.20;99.90;;;;;;5057796;28;20610;-75
2022/07/12 05:48:31;;;;;;;3.80;2.60;;;18.20;99.90;;;;;;5076159;28;20706;-75
2022/07/12 05:53:21;;;;;;;8.30;3.27;;;18.20;99.90;;;;;;5074776;28;20623;-74
2022/07/12 05:53:44;;;;;;;4.70;3.70;;;18.40;99.90;;;;;;5075955;28;20587;-75
2022/07/12 05:56:12;;;;;;;3.90;3.60;;;18.60;99.90;;;;;;5076970;28;20638;-75
2022/07/12 05:58:38;;;;;;;4.30;3.20;;;18.80;99.90;;;;;;5058363;28;20622;-74
2022/07/12 06:01:05;;;;;;;3.60;3.30;;;18.90;99.90;;;;;;5075129;28;20683;-75
2022/07/12 06:03:32;;;;;;;3.67;3.43;;;18.90;99.90;;;;;;5074955;28;20610;-74
2022/07/12 06:05:59;;;;;;;7.17;3.87;;;19.00;99.90;;;;;;5074479;28;20598;-74
2022/07/12 06:08:25;;;;;;;3.20;3.00;;;19.20;99.90;;;;;;5075214;28;20622;-75
2022/07/12 06:10:52;;;;;;;3.87;3.40;;;19.30;99.90;;;;;;5076049;28;20675;-76
2022/07/12 06:13:18;;;;;;;3.60;3.37;;;19.30;99.90;;;;;;5075071;28;20614;-74
2022/07/12 06:15:45;;;;;;;6.73;3.47;;;19.40;99.90;;;;;;5075199;28;20603;-75
2022/07/12 06:18:11;;;;;;;4.60;3.60;;;19.40;99.90;;;;;;5075890;28;20615;-74
2022/07/12 06:20:38;;;;;;;4.23;3.30;;;19.60;99.90;;;;;;5074626;28;20614;-75
2022/07/12 06:23:04;;;;;;;6.40;3.33;;;19.70;99.90;;;;;;5076123;28;20630;-75
2022/07/12 06:25:31;;;;;;;3.40;3.10;;;19.90;99.90;;;;;;5041217;28;20720;-76
2022/07/12 06:28:01;;;;;;;4.10;3.10;;;19.80;99.90;;;;;;5074972;28;20602;-76
2022/07/12 06:30:27;;;;;;;2.80;2.60;;;19.80;99.90;;;;;;5057743;28;20621;-75
2022/07/12 06:32:54;;;;;;;2.70;2.50;;;19.90;99.90;;;;;;5074164;28;21172;-76
2022/07/12 06:35:20;;;;;;;3.43;3.03;;;20.00;99.90;;;;;;5075979;28;20610;-76
2022/07/12 06:37:47;;;;;;;8.30;3.50;;;20.20;99.90;;;;;;5058423;28;20625;-76
2022/07/12 06:40:16;;;;;;;5.77;2.73;;;20.20;99.90;;;;;;5057351;28;21247;-77
2022/07/12 06:42:43;;;;;;;3.87;3.50;;;20.20;99.90;;;;;;5074566;28;20634;-76
2022/07/12 06:45:11;;;;;;;5.40;3.73;;;20.30;99.90;;;;;;5056503;28;20664;-74
2022/07/12 06:47:37;;;;;;;6.57;3.50;;;20.10;99.90;;;;;;5074192;28;20598;-74
2022/07/12 06:50:04;;;;;;;2.73;2.53;;;20.40;99.90;;;;;;5040118;28;20618;-76
2022/07/12 06:52:31;;;;;;;2.50;2.30;;;20.40;99.90;;;;;;5075609;28;20725;-74
2022/07/12 06:54:58;;;;;;;3.10;2.00;;;20.40;99.90;;;;;;5079406;28;20618;-75
2022/07/12 06:57:26;;;;;;;5.97;2.33;;;20.60;99.90;;;;;;5080242;28;20642;-74
2022/07/12 06:59:53;;;;;;;2.10;2.00;;;20.60;99.90;;;;;;5063782;28;20625;-74
2022/07/12 07:02:19;;;;;;;3.13;2.20;;;20.70;99.90;;;;;;5078528;28;21215;-73
2022/07/12 07:04:45;;;;;;;2.40;2.20;;;20.70;99.90;;;;;;5058682;28;21014;-73
2022/07/12 07:07:12;;;;;;;2.40;2.20;;;20.90;99.90;;;;;;5075924;28;20909;-73
2022/07/12 07:09:38;;;;;;;2.00;1.70;;;20.90;99.90;;;;;;5074361;28;20678;-72
2022/07/12 07:12:06;;;;;;;2.00;1.90;;;20.90;99.90;;;;;;5057813;28;20671;-75
2022/07/12 07:14:33;;;;;;;4.33;2.00;;;21.10;99.90;;;;;;5075689;28;20621;-74
2022/07/12 07:16:59;;;;;;;2.90;2.10;;;21.30;99.90;;;;;;5059198;28;20706;-75
2022/07/12 07:19:26;;;;;;;2.60;2.10;;;21.30;99.90;;;;;;5061416;28;20697;-73
2022/07/12 07:21:56;;;;;;;2.13;1.93;;;21.30;99.90;;;;;;5077296;28;20686;-75
2022/07/12 07:24:22;;;;;;;2.50;2.23;;;21.30;99.90;;;;;;5063259;28;20658;-75
2022/07/12 07:26:49;;;;;;;2.00;1.90;;;21.50;99.90;;;;;;5081636;28;20601;-74
2022/07/12 07:32:00;;;;;;;11.47;1.90;;;21.50;99.90;;;;;;5080827;28;20626;-75
2022/07/12 07:34:27;;;;;;;2.50;2.00;;;21.50;99.90;;;;;;5078803;28;20692;-75
2022/07/12 07:36:53;;;;;;;2.87;2.67;;;21.70;99.90;;;;;;5080676;28;20679;-75
2022/07/12 07:39:20;;;;;;;2.63;2.00;;;21.70;99.90;;;;;;5078790;28;21007;-76
2022/07/12 07:41:46;;;;;;;2.10;2.00;;;21.90;99.90;;;;;;5078394;28;21149;-76
2022/07/12 07:44:12;;;;;;;2.60;1.70;;;22.00;99.90;;;;;;5078749;28;20669;-76
2022/07/12 07:46:39;;;;;;;5.43;2.23;;;22.20;99.90;;;;;;5060502;28;20697;-75
2022/07/12 07:49:05;;;;;;;1.70;1.60;;;22.20;99.90;;;;;;5076797;28;20620;-74
2022/07/12 07:51:32;;;;;;;2.40;2.30;;;22.30;99.90;;;;;;5043037;28;20617;-73
2022/07/12 07:53:59;;;;;;;1.90;1.80;;;22.30;99.90;;;;;;5078925;28;20618;-74
2022/07/12 07:56:25;;;;;;;3.10;2.33;;;22.40;99.90;;;;;;5060173;28;20629;-74
2022/07/12 07:58:52;;;;;;;5.23;2.53;;;22.50;99.90;;;;;;5078989;28;21187;-73
2022/07/12 08:01:18;;;;;;;2.40;2.20;;;22.40;99.90;;;;;;5044080;28;20610;-73
2022/07/12 08:03:45;;;;;;;4.03;2.23;;;22.50;99.90;;;;;;5045399;28;20705;-74
2022/07/12 08:06:11;;;;;;;2.40;1.90;;;22.50;99.90;;;;;;5060190;28;20670;-74
2022/07/12 08:08:38;;;;;;;2.70;2.50;;;22.70;99.90;;;;;;5078995;28;20610;-74
2022/07/12 08:11:04;;;;;;;2.27;2.17;;;22.90;99.90;;;;;;5078071;28;21171;-75
2022/07/12 08:13:31;;;;;;;2.17;1.90;;;22.70;99.90;;;;;;5080627;28;20712;-76
2022/07/12 08:15:59;;;;;;;2.10;2.00;;;22.90;99.90;;;;;;5078998;28;20621;-72
2022/07/12 08:18:27;;;;;;;2.60;2.40;;;22.90;99.90;;;;;;5079037;28;20682;-74
2022/07/12 08:20:54;;;;;;;2.17;2.07;;;23.00;99.90;;;;;;5044267;28;20607;-76
2022/07/12 08:23:20;;;;;;;3.60;2.53;;;23.00;99.90;;;;;;5044840;28;20625;-74
2022/07/12 08:25:47;;;;;;;2.87;2.67;;;23.00;99.90;;;;;;5078484;28;20654;-76
2022/07/12 08:28:13;;;;;;;2.80;2.70;;;23.30;99.90;;;;;;5076883;28;20609;-74
2022/07/12 08:30:40;;;;;;;3.00;2.90;;;23.30;99.90;;;;;;5058902;28;20606;-76
2022/07/12 08:33:07;;;;;;;2.60;2.30;;;23.20;99.90;;;;;;5077049;28;20693;-77
2022/07/12 08:35:34;;;;;;;2.63;2.43;;;23.40;99.90;;;;;;5076541;28;20633;-76
2022/07/12 08:38:01;;;;;;;2.60;2.30;;;23.30;99.90;;;;;;5077152;28;20988;-74
2022/07/12 08:40:31;;;;;;;2.57;2.40;;;23.30;99.90;;;;;;5075905;28;20661;-73
2022/07/12 08:43:00;;;;;;;3.83;2.60;;;23.60;99.90;;;;;;5059577;28;20617;-75
2022/07/12 08:45:26;;;;;;;2.90;2.80;;;23.60;99.90;;;;;;5059408;28;20681;-75
2022/07/12 08:47:53;;;;;;;3.30;3.07;;;23.50;99.90;;;;;;5059658;28;20615;-74
2022/07/12 08:50:22;;;;;;;2.50;2.40;;;23.50;99.90;;;;;;5077988;28;20629;-75
2022/07/12 08:52:51;;;;;;;2.70;2.60;;;23.80;99.90;;;;;;5077983;28;20610;-75
2022/07/12 08:55:20;;;;;;;2.90;2.70;;;23.80;99.90;;;;;;5077852;28;20614;-75
2022/07/12 08:57:49;;;;;;;2.80;2.70;;;24.10;99.90;;;;;;5077191;28;20638;-75
2022/07/12 09:00:16;;;;;;;2.90;2.70;;;24.00;99.90;;;;;;5059009;28;20630;-73
2022/07/12 09:02:45;;;;;;;3.67;2.90;;;24.20;99.90;;;;;;5043786;28;20629;-75
2022/07/12 09:05:13;;;;;;;9.00;3.70;;;24.00;99.90;;;;;;5075898;28;20668;-75
2022/07/12 09:07:40;;;;;;;4.57;3.00;;;24.00;99.90;;;;;;5077023;28;20687;-76
2022/07/12 09:10:08;;;;;;;3.00;2.90;;;23.80;99.90;;;;;;5059546;28;20629;-75
2022/07/12 09:12:35;;;;;;;3.00;2.90;;;24.20;99.90;;;;;;5078468;28;20606;-76
2022/07/12 09:15:17;;;;;;;3.07;2.97;;;24.60;99.90;;;;;;5060101;28;20598;-77
2022/07/12 09:18:04;;;;;;;3.00;2.80;;;24.90;99.90;;;;;;5078828;28;20626;-77
2022/07/12 09:20:36;;;;;;;3.20;3.00;;;24.80;99.90;;;;;;5077325;28;20681;-75
2022/07/12 09:23:10;;;;;;;3.20;3.10;;;24.60;99.90;;;;;;5075989;28;20614;-77
2022/07/12 09:25:38;;;;;;;3.20;3.00;;;24.20;99.90;;;;;;5075880;28;20703;-77
2022/07/12 09:28:07;;;;;;;3.50;3.30;;;24.50;99.90;;;;;;5057462;28;20621;-77
2022/07/12 09:30:38;;;;;;;3.50;3.40;;;24.90;99.90;;;;;;5076411;28;20602;-78
2022/07/12 09:36:08;;;;;;;3.50;3.40;;;24.70;99.90;;;;;;5075382;28;20566;-75
2022/07/12 09:38:38;;;;;;;3.67;3.37;;;24.80;99.90;;;;;;5075545;28;20568;-74
2022/07/12 09:41:06;;;;;;;3.40;3.30;;;24.80;99.90;;;;;;5075553;28;20637;-77
2022/07/12 09:43:33;;;;;;;3.60;3.40;;;25.10;99.90;;;;;;5057985;28;20602;-76
2022/07/12 09:46:04;;;;;;;3.80;3.47;;;25.40;99.90;;;;;;5058349;28;21243;-76
2022/07/12 09:48:30;;;;;;;4.23;4.03;;;25.50;99.90;;;;;;5058253;28;20575;-76
2022/07/12 09:50:58;;;;;;;3.77;3.50;;;25.30;99.90;;;;;;5041700;28;20618;-75
2022/07/12 09:53:30;;;;;;;3.70;3.50;;;25.20;99.90;;;;;;5076638;28;20613;-75
2022/07/12 09:55:58;;;;;;;3.60;3.40;;;25.50;99.90;;;;;;5075666;28;20653;-75
2022/07/12 09:58:30;;;;;;;3.80;3.70;;;25.80;99.90;;;;;;5074879;28;20606;-75
2022/07/12 10:01:02;;;;;;;3.80;3.60;;;25.60;99.90;;;;;;5075220;28;20571;-75
2022/07/12 10:03:31;;;;;;;4.50;3.53;;;25.50;99.90;;;;;;5056495;28;20626;-75
2022/07/12 10:06:01;;;;;;;3.40;3.30;;;25.60;99.90;;;;;;5074999;28;20661;-75
2022/07/12 10:08:29;;;;;;;3.70;3.50;;;25.70;99.90;;;;;;5075393;28;20611;-76
2022/07/12 10:10:57;;;;;;;4.10;3.73;;;25.50;99.90;;;;;;5075023;28;20992;-74
2022/07/12 10:13:23;;;;;;;3.60;3.50;;;25.60;99.90;;;;;;5041362;28;21191;-74
2022/07/12 10:15:56;;;;;;;4.50;3.30;;;25.80;99.90;;;;;;5057589;28;20637;-75
2022/07/12 10:18:23;;;;;;;3.87;3.73;;;25.70;99.90;;;;;;5057497;28;20619;-75
2022/07/12 10:20:50;;;;;;;3.87;3.70;;;25.60;99.90;;;;;;5057330;28;21041;-75
2022/07/12 10:23:19;;;;;;;3.73;3.43;;;25.60;99.90;;;;;;5075140;28;20609;-75
2022/07/12 10:25:48;;;;;;;3.60;3.40;;;25.40;99.90;;;;;;5057275;28;20711;-75
2022/07/12 10:28:14;;;;;;;3.83;3.60;;;25.50;99.90;;;;;;5075311;28;20637;-75
2022/07/12 10:30:51;;;;;;;3.63;3.53;;;25.90;99.90;;;;;;5075215;28;20610;-75
2022/07/12 10:33:23;;;;;;;3.40;3.30;;;25.80;99.90;;;;;;5075439;28;20566;-74
2022/07/12 10:36:07;;;;;;;3.47;3.27;;;25.70;99.90;;;;;;5056994;28;20638;-75
2022/07/12 10:38:35;;;;;;;3.50;3.40;;;25.60;99.90;;;;;;5074925;28;20653;-75
2022/07/12 10:41:24;;;;;;;3.87;3.63;;;25.60;99.90;;;;;;5057576;28;20652;-75
2022/07/12 10:44:07;;;;;;;3.40;3.30;;;26.10;99.90;;;;;;5075601;28;20650;-75
2022/07/12 10:46:34;;;;;;;3.90;3.80;;;26.30;99.90;;;;;;5075300;28;20756;-75
2022/07/12 10:49:25;;;;;;;3.40;3.30;;;26.40;99.90;;;;;;5056816;28;20618;-75
2022/07/12 10:52:10;;;;;;;4.17;3.97;;;26.80;99.90;;;;;;5075385;28;21183;-75
2022/07/12 10:55:06;;;;;;;4.03;3.73;;;26.70;99.90;;;;;;5074645;28;20613;-75
2022/07/12 10:57:51;;;;;;;4.10;3.80;;;26.10;99.90;;;;;;5015400;28;20662;-72
2022/07/12 11:00:19;;;;;;;4.40;4.20;;;26.20;99.90;;;;;;5054182;28;20615;-72
2022/07/12 11:02:46;;;;;;;3.87;3.77;;;26.20;99.90;;;;;;5054472;28;20607;-74
2022/07/12 11:05:13;;;;;;;4.00;3.90;;;26.00;99.90;;;;;;5054663;28;20697;-73
2022/07/12 11:07:40;;;;;;;4.20;4.10;;;26.20;99.90;;;;;;5040214;28;20607;-73
2022/07/12 11:10:07;;;;;;;4.17;4.07;;;25.90;99.90;;;;;;5059148;28;20618;-73
2022/07/12 11:12:33;;;;;;;4.20;4.10;;;26.10;99.90;;;;;;5057389;28;20607;-71
2022/07/12 11:15:00;;;;;;;6.70;4.70;;;26.40;99.90;;;;;;5038960;28;21020;-72
2022/07/12 11:17:28;;;;;;;5.37;5.10;;;27.10;99.90;;;;;;5057149;28;20672;-72
2022/07/12 11:20:09;;;;;;;4.40;4.20;;;27.10;99.90;;;;;;5055273;28;20631;-72
2022/07/12 11:22:37;;;;;;;4.53;4.33;;;27.20;99.90;;;;;;5039248;28;20637;-72
2022/07/12 11:25:06;;;;;;;4.80;4.70;;;27.10;99.90;;;;;;5056726;28;20670;-71
2022/07/12 11:27:36;;;;;;;5.10;4.90;;;26.80;99.90;;;;;;5057315;28;20568;-72
2022/07/12 11:30:08;;;;;;;4.83;4.73;;;26.60;99.90;;;;;;5039141;28;20626;-71
2022/07/12 11:32:40;;;;;;;5.10;4.90;;;27.30;99.90;;;;;;5056778;28;20698;-72
2022/07/12 11:35:23;;;;;;;4.93;4.67;;;27.70;99.90;;;;;;5058949;28;20591;-73
2022/07/12 11:37:51;;;;;;;5.37;5.27;;;27.70;99.90;;;;;;5068611;28;20618;-72
2022/07/12 11:40:29;;;;;;;5.53;5.43;;;28.70;99.90;;;;;;5064271;28;20666;-74
2022/07/12 11:42:58;;;;;;;5.80;5.60;;;29.40;99.90;;;;;;5057247;28;21108;-74
2022/07/12 11:45:27;;;;;;;6.40;5.80;;;29.60;99.90;;;;;;5018874;28;20774;-75
2022/07/12 11:47:54;;;;;;;5.90;5.60;;;30.30;99.90;;;;;;5036618;28;20612;-74
2022/07/12 11:50:21;;;;;;;5.60;5.40;;;30.60;99.90;;;;;;5036253;28;21174;-74
2022/07/12 11:52:47;;;;;;;5.90;5.50;;;30.60;99.90;;;;;;5036942;28;21174;-75
2022/07/12 11:55:14;;;;;;;5.00;4.90;;;30.40;99.90;;;;;;5019614;28;20946;-74
2022/07/12 11:57:40;;;;;;;5.90;5.60;;;29.80;99.90;;;;;;5037821;28;20648;-74
2022/07/12 12:00:20;;;;;;;6.17;5.90;;;29.70;99.90;;;;;;5020400;28;20948;-73
2022/07/12 12:02:54;;;;;;;5.50;5.30;;;30.10;99.90;;;;;;5037751;28;20576;-73
2022/07/12 12:05:21;;;;;;;6.00;5.80;;;30.10;99.90;;;;;;5019545;28;20631;-73
2022/07/12 12:07:47;;;;;;;5.93;5.70;;;29.70;99.90;;;;;;5037588;28;20606;-74
2022/07/12 12:10:16;;;;;;;5.80;5.40;;;29.00;99.90;;;;;;5037893;28;20616;-74
2022/07/12 12:12:47;;;;;;;5.80;5.60;;;30.00;99.90;;;;;;5021073;28;20600;-73
2022/07/12 12:15:16;;;;;;;5.50;5.30;;;30.50;99.90;;;;;;5036549;28;20737;-74
2022/07/12 12:18:06;;;;;;;5.93;5.73;;;30.50;99.90;;;;;;5038278;28;20744;-74
2022/07/12 12:20:38;;;;;;;5.83;5.63;;;30.80;99.90;;;;;;5039041;28;20623;-74
2022/07/12 12:23:06;;;;;;;5.83;5.67;;;31.10;99.90;;;;;;5037765;28;20572;-74
2022/07/12 12:25:35;;;;;;;5.67;5.30;;;31.50;99.90;;;;;;5038419;28;20648;-74
2022/07/12 12:28:05;;;;;;;6.00;5.60;;;31.20;99.90;;;;;;5037567;28;20619;-74
2022/07/12 12:30:47;;;;;;;5.50;5.30;;;30.50;99.90;;;;;;5018884;28;20643;-74
2022/07/12 12:33:32;;;;;;;5.83;5.53;;;31.60;99.90;;;;;;5004867;28;20600;-74
2022/07/12 12:36:12;;;;;;;5.80;5.60;;;31.50;99.90;;;;;;5037448;28;20588;-74
2022/07/12 12:38:38;;;;;;;6.20;5.80;;;31.30;99.90;;;;;;5019199;28;20624;-74
2022/07/12 12:41:05;;;;;;;6.10;5.90;;;30.10;99.90;;;;;;5035162;28;20662;-74
2022/07/12 12:43:32;;;;;;;6.00;5.80;;;30.60;99.90;;;;;;5037158;28;20673;-74
2022/07/12 12:45:59;;;;;;;6.00;5.80;;;31.60;99.90;;;;;;5019664;28;20685;-75
2022/07/12 12:48:30;;;;;;;5.90;5.70;;;32.00;99.90;;;;;;5019300;28;20616;-74
2022/07/12 12:51:05;;;;;;;6.23;6.03;;;32.60;99.90;;;;;;5018904;28;20593;-74
2022/07/12 12:53:32;;;;;;;6.00;5.80;;;33.50;99.90;;;;;;5002672;28;20626;-74
2022/07/12 12:55:59;;;;;;;6.70;6.20;;;33.10;98.20;;;;;;5018555;28;20658;-75
2022/07/12 12:58:26;;;;;;;12.07;5.70;;;32.80;99.70;;;;;;5036089;28;20949;-75